< < Back
Terminal Aerodrome Forecast


Current Version              Previous Versions:   1  2  3  4  5  6  7  8  9  

Terminal Aerodrome Forecast

451
FTUS44 KMRX 302332
TAFCHA
TAF
KCHA 302332Z 3100/3124 22008KT P6SM VCTS SCT060CB BKN120 OVC250
      TEMPO 3100/3101 VRB10G20KT 3SM TSRA BR BKN030CB
     FM310100 VRB03KT P6SM -SHRA BKN050
     FM310400 00000KT P6SM FEW045 BKN120
     FM311300 18004KT P6SM SCT035 BKN100=

Latest METAR

016
SAUS80 KWBC 310000
MTRCHA
METAR KCHA 302353Z 16003KT 10SM -TSRA FEW010 SCT039 BKN060CB BKN130
23/21 A3008 RMK AO2 PK WND 14027/2321 RAB24 SLP181 OCNL LTGIC
NE TS NE MOV N CB DSNT SE P0006 60006 T02280206 10322 20228
53012 $


USA.gov is the U.S. government's official web portal to all federal, state and local government web resources and services.